Hlavní strana
METAR-TAF:

METAR-TAF

Letiště :

Jasper County, Indiana, Spojené státy americké

zeměpisná šířka: 40-56-52N, zeměpisná délka: 087-10-57W, výška: 213 m

Aktuální stav počasí

Zpráva byla vytvořena před 25 minutami, v 05:55 UTC
Jihojihozápadní vítr 15 kt s nárazy do 20 kt
Teplota 17°C
Vlhkost vzduchu 94%
Tlak 1000 hPa
Viditelnost: 16.1 km
Oblačno až skoro zataženo ve výšce 1600 ft
Oblačno až skoro zataženo ve výšce 2600 ft
Zataženo ve výšce 3200 ft

METAR: KRZL 290555Z AUTO 20015G20KT 10SM BKN016 BKN026 OVC032 17/16 A2953 RMK AO2

Čas: 02:20 (06:20 UTC)


TAF: chybějící

Stav a předpovědi počasí z více než 4 000 letišť (zprávy METAR a TAF).

Červené a žluté tečky na mapě představují dostupné meteorologické stanice.

Když kurzor umístíte na tečku, zobrazí se název stanice.

Pak kliknutím zobrazíte stav a předpověď počasí.

Chcete-li změnit mapu, kliknutím na zelené tlačítko se znaménkem +mapu přiblížíte, kliknutím na zelené tlačítko se znaménkem – mapu oddálíte a kliknutím na zelené šipky přejdete na sousední mapy.


METAR-TAF: